createdAt,value
2019-02-19T00:00:35.341Z,19.10
2019-02-19T00:03:03.926Z,18.67
2019-02-19T00:05:32.484Z,17.62
2019-02-19T00:08:01.081Z,16.52
2019-02-19T00:10:29.633Z,15.53
2019-02-19T00:12:58.221Z,17.10
2019-02-19T00:15:26.802Z,17.00
2019-02-19T00:17:55.382Z,18.87
2019-02-19T00:20:23.970Z,16.85
2019-02-19T00:22:52.524Z,17.07
2019-02-19T00:25:21.167Z,14.95
2019-02-19T00:27:49.765Z,15.63
2019-02-19T00:30:18.350Z,14.58
2019-02-19T00:32:46.945Z,14.85
2019-02-19T00:35:15.530Z,12.65
2019-02-19T00:37:44.090Z,10.40
2019-02-19T00:40:12.666Z,9.48
2019-02-19T00:42:41.238Z,10.28
2019-02-19T00:45:16.455Z,8.10
2019-02-19T00:47:40.130Z,8.78
2019-02-19T00:50:08.802Z,8.00
2019-02-19T00:52:37.352Z,9.70
2019-02-19T00:55:06.024Z,9.18
2019-02-19T00:57:34.611Z,8.63
2019-02-19T01:00:03.150Z,8.00
2019-02-19T01:02:31.699Z,8.08
2019-02-19T01:05:00.360Z,8.38
2019-02-19T01:07:28.967Z,7.83
2019-02-19T01:09:57.516Z,8.43
2019-02-19T01:12:26.086Z,8.93
2019-02-19T01:14:54.666Z,8.40
2019-02-19T01:17:23.219Z,8.95
2019-02-19T01:19:51.775Z,8.18
2019-02-19T01:22:20.351Z,8.40
2019-02-19T01:24:48.928Z,8.95
2019-02-19T01:27:17.549Z,8.48
2019-02-19T01:29:46.096Z,8.33
2019-02-19T01:32:14.645Z,9.08
2019-02-19T01:34:43.224Z,8.45
2019-02-19T01:37:11.814Z,8.93
2019-02-19T01:39:40.359Z,8.93
2019-02-19T01:42:08.910Z,7.65
2019-02-19T01:44:37.489Z,7.28
2019-02-19T01:47:06.034Z,7.55
2019-02-19T01:49:34.634Z,8.33
2019-02-19T01:52:03.194Z,7.60
2019-02-19T01:54:31.745Z,8.10
2019-02-19T01:57:00.655Z,7.92
2019-02-19T01:59:29.239Z,8.33
2019-02-19T02:01:57.790Z,8.03
2019-02-19T02:04:26.336Z,8.08
2019-02-19T02:06:54.921Z,8.50
2019-02-19T02:09:23.494Z,8.40
2019-02-19T02:11:53.306Z,8.55
2019-02-19T02:14:23.366Z,9.55
2019-02-19T02:16:52.774Z,8.45
2019-02-19T02:19:22.151Z,9.08
2019-02-19T02:21:51.533Z,8.20
2019-02-19T02:24:20.122Z,9.38
2019-02-19T02:26:48.724Z,8.50
2019-02-19T02:29:17.747Z,9.48
2019-02-19T02:31:46.290Z,9.05
2019-02-19T02:34:14.826Z,8.68
2019-02-19T02:36:43.743Z,8.40
2019-02-19T02:39:12.286Z,8.43
2019-02-19T02:41:40.876Z,9.03
2019-02-19T02:44:09.414Z,8.38
2019-02-19T02:46:37.957Z,9.23
2019-02-19T02:49:06.536Z,9.20
2019-02-19T02:51:35.085Z,8.90
2019-02-19T02:54:03.671Z,8.53
2019-02-19T02:56:32.231Z,9.20
2019-02-19T02:59:01.059Z,8.83
2019-02-19T03:01:29.629Z,8.03
2019-02-19T03:03:58.221Z,8.88
2019-02-19T03:06:36.139Z,9.73
2019-02-19T03:09:05.303Z,8.93
2019-02-19T03:11:33.872Z,9.18
2019-02-19T03:14:02.483Z,10.03
2019-02-19T03:16:31.015Z,9.48
2019-02-19T03:18:59.874Z,9.60
2019-02-19T03:21:28.473Z,10.68
2019-02-19T03:23:57.051Z,10.58
2019-02-19T03:26:25.623Z,11.53
2019-02-19T03:28:54.220Z,11.63
2019-02-19T03:31:22.784Z,10.80
2019-02-19T03:33:51.329Z,11.43
2019-02-19T03:36:19.918Z,11.93
2019-02-19T03:38:48.477Z,10.68
2019-02-19T03:41:17.019Z,12.33
2019-02-19T03:43:45.597Z,13.03
2019-02-19T03:46:14.210Z,11.22
2019-02-19T03:48:42.772Z,13.08
2019-02-19T03:51:11.332Z,12.93
2019-02-19T03:53:39.920Z,13.25
2019-02-19T03:56:08.463Z,13.40
2019-02-19T03:58:37.023Z,13.93
2019-02-19T04:01:05.613Z,13.80
2019-02-19T04:03:34.169Z,15.30
2019-02-19T04:06:02.723Z,15.90
2019-02-19T04:08:31.347Z,15.32
2019-02-19T04:10:59.904Z,13.88
2019-02-19T04:13:28.499Z,14.40
2019-02-19T04:15:57.415Z,18.05
2019-02-19T04:18:25.965Z,17.80
2019-02-19T04:20:54.551Z,18.60
2019-02-19T04:23:23.389Z,19.10
2019-02-19T04:25:52.007Z,16.65
2019-02-19T04:28:20.918Z,18.67
2019-02-19T04:30:49.469Z,21.37
2019-02-19T04:33:18.021Z,26.52
2019-02-19T04:35:46.604Z,26.52
2019-02-19T04:38:15.153Z,29.67
2019-02-19T04:40:43.732Z,30.52
2019-02-19T04:43:12.281Z,32.33
2019-02-19T04:45:40.831Z,36.40
2019-02-19T04:48:09.417Z,34.03
2019-02-19T04:50:37.973Z,34.73
2019-02-19T04:53:06.531Z,34.83
2019-02-19T04:55:35.691Z,37.50
2019-02-19T04:58:04.305Z,38.15
2019-02-19T05:00:32.873Z,40.25
2019-02-19T05:03:01.457Z,40.45
2019-02-19T05:05:30.079Z,38.38
2019-02-19T05:07:58.629Z,37.90
2019-02-19T05:10:27.184Z,29.55
2019-02-19T05:12:55.818Z,37.60
2019-02-19T05:15:24.388Z,37.38
2019-02-19T05:17:52.932Z,30.65
2019-02-19T05:20:21.486Z,36.00
2019-02-19T05:22:50.081Z,37.05
2019-02-19T05:25:18.649Z,36.75
2019-02-19T05:27:47.225Z,33.75
2019-02-19T05:30:15.833Z,31.68
2019-02-19T05:32:44.422Z,33.80
2019-02-19T05:35:12.983Z,31.62
2019-02-19T05:37:41.584Z,32.93
2019-02-19T05:40:10.163Z,30.95
2019-02-19T05:42:38.724Z,29.87
2019-02-19T05:45:07.650Z,32.38
2019-02-19T05:47:36.251Z,26.57
2019-02-19T05:50:05.343Z,29.20
2019-02-19T05:52:33.890Z,28.50
2019-02-19T05:55:02.467Z,27.82
2019-02-19T05:57:31.052Z,29.20
2019-02-19T05:59:59.677Z,27.52
2019-02-19T06:02:28.314Z,29.55
2019-02-19T06:04:56.866Z,26.35
2019-02-19T06:07:25.470Z,27.15
2019-02-19T06:09:54.019Z,30.68
2019-02-19T06:12:22.628Z,27.42
2019-02-19T06:14:51.514Z,26.05
2019-02-19T06:17:20.072Z,27.58
2019-02-19T06:19:48.650Z,28.30
2019-02-19T06:22:17.243Z,26.42
2019-02-19T06:24:46.118Z,27.02
2019-02-19T06:27:14.715Z,29.25
2019-02-19T06:29:43.268Z,26.05
2019-02-19T06:32:11.845Z,28.60
2019-02-19T06:34:40.407Z,26.15
2019-02-19T06:37:09.000Z,30.60
2019-02-19T06:39:37.579Z,28.90
2019-02-19T06:42:06.130Z,25.85
2019-02-19T06:44:34.740Z,24.72
2019-02-19T06:47:06.858Z,27.07
2019-02-19T06:49:33.613Z,24.32
2019-02-19T06:52:02.189Z,25.57
2019-02-19T06:54:30.746Z,22.48
2019-02-19T06:56:59.355Z,22.52
2019-02-19T06:59:27.917Z,23.07
2019-02-19T07:02:17.581Z,22.62
2019-02-19T07:04:52.721Z,21.82
2019-02-19T07:07:21.322Z,21.75
2019-02-19T07:09:49.889Z,20.17
2019-02-19T07:12:27.561Z,21.90
2019-02-19T07:15:05.087Z,21.02
2019-02-19T07:17:33.654Z,22.40
2019-02-19T07:20:02.228Z,22.15
2019-02-19T07:22:30.832Z,19.42
2019-02-19T07:24:59.451Z,20.08
2019-02-19T07:27:28.397Z,21.05
2019-02-19T07:29:56.989Z,21.87
2019-02-19T07:32:25.595Z,22.17
2019-02-19T07:34:54.154Z,22.42
2019-02-19T07:37:22.714Z,21.05
2019-02-19T07:39:51.290Z,22.65
2019-02-19T07:42:19.866Z,23.15
2019-02-19T07:44:48.444Z,25.02
2019-02-19T07:47:24.441Z,25.55
2019-02-19T07:49:47.314Z,31.15
2019-02-19T07:52:15.875Z,28.42
2019-02-19T07:54:44.441Z,33.10
2019-02-19T07:57:13.053Z,32.48
2019-02-19T07:59:41.623Z,32.65
2019-02-19T08:02:10.176Z,32.70
2019-02-19T08:04:38.772Z,30.97
2019-02-19T08:07:07.329Z,32.42
2019-02-19T08:09:35.882Z,30.02
2019-02-19T08:12:04.454Z,32.78
2019-02-19T08:14:33.036Z,37.93
2019-02-19T08:17:01.669Z,35.98
2019-02-19T08:19:31.435Z,37.90
2019-02-19T08:21:59.986Z,39.63
2019-02-19T08:24:28.560Z,38.58
2019-02-19T08:26:57.557Z,37.78
2019-02-19T08:29:26.142Z,37.75
2019-02-19T08:31:54.752Z,38.88
2019-02-19T08:34:23.296Z,40.75
2019-02-19T08:36:51.951Z,38.95
2019-02-19T08:39:20.538Z,37.80
2019-02-19T08:41:49.089Z,39.73
2019-02-19T08:44:17.664Z,40.10
2019-02-19T08:46:46.210Z,40.40
2019-02-19T08:49:14.795Z,37.42
2019-02-19T08:51:43.361Z,40.52
2019-02-19T08:54:11.922Z,37.78
2019-02-19T08:56:40.513Z,34.98
2019-02-19T08:59:09.451Z,39.63
2019-02-19T09:01:38.020Z,40.65
2019-02-19T09:04:06.575Z,41.08
2019-02-19T09:06:35.184Z,41.68
2019-02-19T09:09:04.962Z,38.70
2019-02-19T09:11:33.515Z,34.35
2019-02-19T09:14:02.113Z,28.10
2019-02-19T09:16:30.661Z,32.98
2019-02-19T09:18:59.240Z,25.48
2019-02-19T09:21:27.825Z,29.55
2019-02-19T09:23:58.388Z,29.60
2019-02-19T09:26:26.709Z,25.37
2019-02-19T09:28:55.330Z,25.20
2019-02-19T09:31:23.908Z,31.17
2019-02-19T09:33:52.491Z,31.00
2019-02-19T09:36:21.053Z,32.73
2019-02-19T09:38:49.633Z,29.55
2019-02-19T09:41:18.534Z,30.90
2019-02-19T09:43:47.124Z,31.07
2019-02-19T09:46:15.715Z,35.75
2019-02-19T09:48:44.282Z,35.08
2019-02-19T09:51:16.231Z,32.60
2019-02-19T09:53:44.854Z,34.30
2019-02-19T09:56:13.409Z,35.30
2019-02-19T09:58:42.002Z,31.07
2019-02-19T10:01:10.871Z,29.42
2019-02-19T10:03:39.823Z,32.30
2019-02-19T10:06:22.032Z,30.95
2019-02-19T10:08:50.949Z,33.63
2019-02-19T10:11:19.554Z,35.45
2019-02-19T10:13:48.160Z,34.03
2019-02-19T10:16:16.745Z,35.65
2019-02-19T10:18:45.317Z,32.75
2019-02-19T10:21:13.950Z,29.60
2019-02-19T10:23:42.518Z,29.95
2019-02-19T10:26:11.077Z,25.00
2019-02-19T10:28:39.652Z,26.15
2019-02-19T10:31:08.261Z,28.02
2019-02-19T10:33:36.828Z,26.52
2019-02-19T10:36:05.438Z,26.00
2019-02-19T10:38:34.005Z,25.92
2019-02-19T10:41:02.591Z,23.30
2019-02-19T10:43:31.169Z,23.05
2019-02-19T10:45:59.756Z,18.82
2019-02-19T10:48:28.346Z,24.35
2019-02-19T10:50:56.939Z,25.65
2019-02-19T10:53:25.498Z,22.85
2019-02-19T10:55:54.092Z,21.90
2019-02-19T10:58:23.342Z,20.88
2019-02-19T11:00:52.031Z,23.30
2019-02-19T11:03:20.599Z,20.50
2019-02-19T11:05:49.185Z,20.57
2019-02-19T11:08:17.758Z,17.42
2019-02-19T11:10:46.362Z,18.52
2019-02-19T11:13:14.961Z,15.50
2019-02-19T11:15:43.523Z,14.55
2019-02-19T11:18:12.151Z,18.07
2019-02-19T11:20:40.750Z,17.90
2019-02-19T11:23:09.707Z,16.82
2019-02-19T11:25:38.309Z,18.50
2019-02-19T11:28:06.918Z,16.05
2019-02-19T11:30:35.678Z,16.00
2019-02-19T11:33:04.226Z,18.80
2019-02-19T11:38:08.142Z,15.03
2019-02-19T11:40:38.016Z,14.30
2019-02-19T11:43:07.842Z,14.95
2019-02-19T11:45:36.799Z,13.60
2019-02-19T11:48:05.404Z,12.28
2019-02-19T11:50:34.459Z,11.20
2019-02-19T11:53:03.036Z,13.18
2019-02-19T11:55:31.619Z,11.28
2019-02-19T11:58:01.525Z,11.40
2019-02-19T12:00:34.983Z,11.65
2019-02-19T12:03:03.572Z,10.53
2019-02-19T12:05:34.566Z,11.25
2019-02-19T12:08:03.166Z,12.05
2019-02-19T12:10:31.732Z,12.60
2019-02-19T12:13:00.633Z,12.40
2019-02-19T12:15:35.196Z,13.53
2019-02-19T12:17:59.878Z,9.58
2019-02-19T12:20:30.783Z,11.08
2019-02-19T12:23:00.040Z,9.10
2019-02-19T12:25:28.595Z,12.13
2019-02-19T12:27:57.177Z,12.58
2019-02-19T12:30:26.103Z,11.48
2019-02-19T12:32:54.669Z,11.12
2019-02-19T12:35:23.279Z,10.88
2019-02-19T12:37:52.168Z,11.75
2019-02-19T12:40:21.382Z,12.23
2019-02-19T12:42:50.064Z,11.35
2019-02-19T12:45:18.623Z,13.00
2019-02-19T12:47:47.191Z,11.10
2019-02-19T12:50:17.173Z,10.50
2019-02-19T12:52:46.039Z,7.70
2019-02-19T12:55:14.594Z,11.25
2019-02-19T12:57:43.167Z,10.45
2019-02-19T13:00:13.829Z,10.50
2019-02-19T13:02:43.995Z,10.50
2019-02-19T13:05:13.054Z,9.33
2019-02-19T13:07:41.667Z,9.80
2019-02-19T13:10:10.392Z,8.68
2019-02-19T13:12:40.244Z,8.95
2019-02-19T13:15:13.711Z,9.28
2019-02-19T13:17:42.982Z,7.95
2019-02-19T13:20:13.111Z,7.45
2019-02-19T13:22:42.797Z,9.18
2019-02-19T13:25:13.600Z,8.50
2019-02-19T13:27:43.205Z,8.48
2019-02-19T13:30:14.415Z,8.58
2019-02-19T13:32:43.594Z,8.30
2019-02-19T13:35:13.883Z,8.53
2019-02-19T13:37:42.532Z,6.95
2019-02-19T13:40:12.000Z,9.45
2019-02-19T13:42:41.092Z,7.08
2019-02-19T13:45:11.521Z,6.83
2019-02-19T13:47:40.486Z,6.35
2019-02-19T13:50:11.967Z,6.15
2019-02-19T13:52:59.558Z,6.78
2019-02-19T13:55:32.054Z,7.12
2019-02-19T13:58:00.650Z,6.60
2019-02-19T14:00:30.018Z,6.40
2019-02-19T14:02:58.598Z,6.05
2019-02-19T14:05:27.630Z,7.35
2019-02-19T14:07:56.606Z,6.20
2019-02-19T14:10:25.444Z,6.10
2019-02-19T14:12:54.001Z,5.85
2019-02-19T14:15:57.373Z,6.50
2019-02-19T14:18:45.107Z,5.40
2019-02-19T14:21:34.927Z,5.30
2019-02-19T14:24:22.522Z,4.78
2019-02-19T14:27:22.217Z,4.58
2019-02-19T14:30:19.085Z,5.42
2019-02-19T14:33:05.895Z,4.90
2019-02-19T14:35:59.829Z,4.87
2019-02-19T14:38:46.372Z,5.67
2019-02-19T14:41:32.868Z,5.12
2019-02-19T14:44:15.325Z,6.45
2019-02-19T14:47:09.236Z,5.45
2019-02-19T14:49:52.309Z,5.08
2019-02-19T14:52:36.797Z,6.37
2019-02-19T14:55:24.451Z,6.10
2019-02-19T14:58:12.758Z,6.25
2019-02-19T15:00:59.726Z,6.25
2019-02-19T15:04:05.665Z,6.45
2019-02-19T15:06:56.089Z,6.40
2019-02-19T15:09:42.597Z,6.72
2019-02-19T15:12:29.228Z,6.50
2019-02-19T15:15:13.508Z,6.78
2019-02-19T15:17:52.990Z,6.28
2019-02-19T15:20:34.476Z,6.10
2019-02-19T15:23:33.157Z,6.40
2019-02-19T15:26:08.837Z,6.75
2019-02-19T15:29:15.160Z,6.80
2019-02-19T15:31:51.477Z,8.05
2019-02-19T15:34:33.431Z,7.97
2019-02-19T15:37:21.745Z,6.87
2019-02-19T15:40:12.851Z,6.65
2019-02-19T15:43:05.193Z,7.83
2019-02-19T15:45:53.190Z,6.58
2019-02-19T15:48:50.065Z,6.95
2019-02-19T15:51:32.906Z,7.78
2019-02-19T15:54:29.816Z,8.53
2019-02-19T15:57:04.192Z,8.10
2019-02-19T15:59:51.248Z,8.10
2019-02-19T16:02:46.035Z,6.83
2019-02-19T16:05:32.379Z,8.18
2019-02-19T16:08:26.128Z,7.22
2019-02-19T16:11:19.657Z,7.92
2019-02-19T16:13:56.310Z,7.10
2019-02-19T16:16:38.336Z,8.08
2019-02-19T16:19:37.828Z,6.95
2019-02-19T16:22:21.885Z,8.48
2019-02-19T16:25:02.118Z,8.03
2019-02-19T16:27:52.797Z,7.87
2019-02-19T16:30:33.499Z,8.33
2019-02-19T16:33:22.171Z,7.60
2019-02-19T16:35:57.888Z,7.05
2019-02-19T16:38:40.513Z,8.35
2019-02-19T16:41:21.799Z,6.90
2019-02-19T16:44:08.416Z,8.88
2019-02-19T16:46:44.256Z,8.48
2019-02-19T16:49:32.163Z,8.43
2019-02-19T16:52:08.252Z,7.95
2019-02-19T16:54:44.919Z,7.40
2019-02-19T16:57:31.771Z,7.60
2019-02-19T17:00:14.651Z,7.12
2019-02-19T17:02:57.303Z,7.42
2019-02-19T17:05:42.551Z,8.10
2019-02-19T17:08:18.844Z,7.58
2019-02-19T17:10:57.627Z,7.30
2019-02-19T17:13:44.185Z,8.00
2019-02-19T17:16:34.224Z,7.28
2019-02-19T17:19:09.619Z,7.08
2019-02-19T17:22:06.328Z,7.20
2019-02-19T17:24:54.313Z,8.48
2019-02-19T17:27:35.332Z,7.03
2019-02-19T17:30:14.595Z,7.30
2019-02-19T17:32:50.655Z,7.55
2019-02-19T17:35:43.984Z,8.55
2019-02-19T17:38:30.287Z,7.10
2019-02-19T17:41:14.283Z,6.75
2019-02-19T17:43:52.416Z,6.58
2019-02-19T17:46:51.978Z,7.28
2019-02-19T17:49:45.318Z,6.95
2019-02-19T17:52:31.457Z,6.55
2019-02-19T17:55:37.529Z,7.53
2019-02-19T17:58:14.791Z,6.33
2019-02-19T18:00:53.199Z,7.20
2019-02-19T18:03:36.437Z,7.33
2019-02-19T18:06:12.393Z,7.15
2019-02-19T18:09:09.320Z,8.68
2019-02-19T18:11:56.369Z,7.92
2019-02-19T18:14:35.261Z,8.25
2019-02-19T18:17:34.804Z,8.78
2019-02-19T18:20:03.367Z,9.05
2019-02-19T18:22:32.220Z,8.50
2019-02-19T18:25:00.845Z,9.35
2019-02-19T18:27:29.401Z,9.03
2019-02-19T18:29:57.967Z,8.50
2019-02-19T18:32:26.560Z,9.48
2019-02-19T18:34:55.115Z,9.20
2019-02-19T18:37:23.656Z,9.48
2019-02-19T18:39:52.233Z,8.20
2019-02-19T18:42:21.179Z,9.30
2019-02-19T18:44:49.756Z,9.68
2019-02-19T18:47:18.303Z,8.08
2019-02-19T18:49:46.928Z,8.83
2019-02-19T18:52:15.471Z,8.38
2019-02-19T18:54:44.027Z,8.45
2019-02-19T18:57:12.952Z,7.35
2019-02-19T18:59:43.019Z,8.23
2019-02-19T19:02:11.563Z,7.75
2019-02-19T19:04:40.119Z,7.62
2019-02-19T19:07:08.706Z,8.68
2019-02-19T19:09:37.270Z,6.97
2019-02-19T19:12:05.863Z,7.22
2019-02-19T19:14:34.421Z,6.72
2019-02-19T19:17:03.000Z,7.70
2019-02-19T19:19:31.591Z,7.17
2019-02-19T19:22:00.161Z,7.25
2019-02-19T19:24:28.821Z,6.65
2019-02-19T19:26:57.372Z,5.92
2019-02-19T19:29:25.922Z,5.37
2019-02-19T19:31:54.533Z,6.53
2019-02-19T19:34:23.084Z,6.08
2019-02-19T19:36:51.638Z,4.92
2019-02-19T19:39:20.213Z,5.78
2019-02-19T19:41:48.790Z,5.65
2019-02-19T19:44:17.367Z,6.50
2019-02-19T19:46:45.963Z,6.00
2019-02-19T19:49:14.520Z,6.90
2019-02-19T19:51:43.072Z,5.55
2019-02-19T19:54:11.659Z,6.42
2019-02-19T19:56:40.215Z,5.35
2019-02-19T19:59:08.805Z,6.50
2019-02-19T20:01:37.360Z,6.85
2019-02-19T20:04:05.912Z,5.87
2019-02-19T20:06:34.490Z,6.55
2019-02-19T20:09:04.629Z,6.50
2019-02-19T20:11:33.180Z,7.58
2019-02-19T20:14:01.829Z,7.30
2019-02-19T20:16:30.441Z,6.50
2019-02-19T20:18:58.995Z,5.92
2019-02-19T20:21:27.567Z,5.92
2019-02-19T20:23:56.145Z,7.17
2019-02-19T20:26:24.695Z,6.78
2019-02-19T20:28:53.297Z,5.67
2019-02-19T20:31:21.865Z,5.30
2019-02-19T20:33:50.404Z,5.15
2019-02-19T20:36:18.982Z,4.92
2019-02-19T20:38:47.536Z,4.92
2019-02-19T20:41:16.155Z,5.17
2019-02-19T20:43:44.753Z,6.10
2019-02-19T20:46:13.383Z,5.08
2019-02-19T20:48:42.071Z,4.97
2019-02-19T20:51:10.627Z,5.53
2019-02-19T20:53:39.203Z,5.60
2019-02-19T20:56:07.724Z,4.92
2019-02-19T20:58:36.291Z,5.85
2019-02-19T21:01:04.844Z,4.95
2019-02-19T21:03:35.802Z,4.15
2019-02-19T21:06:04.363Z,5.70
2019-02-19T21:08:32.947Z,5.10
2019-02-19T21:11:01.528Z,4.58
2019-02-19T21:13:30.116Z,4.83
2019-02-19T21:15:58.674Z,5.08
2019-02-19T21:18:28.227Z,4.45
2019-02-19T21:20:56.802Z,5.03
2019-02-19T21:23:25.353Z,7.35
2019-02-19T21:25:53.966Z,5.42
2019-02-19T21:28:22.535Z,6.90
2019-02-19T21:30:51.086Z,6.25
2019-02-19T21:33:19.662Z,5.40
2019-02-19T21:35:48.236Z,5.10
2019-02-19T21:38:16.843Z,5.53
2019-02-19T21:40:45.409Z,5.20
2019-02-19T21:43:13.993Z,6.00
2019-02-19T21:45:42.606Z,4.42
2019-02-19T21:48:11.176Z,4.92
2019-02-19T21:50:39.728Z,5.92
2019-02-19T21:53:08.335Z,5.78
2019-02-19T21:55:36.898Z,5.37
2019-02-19T21:58:06.576Z,8.20
2019-02-19T22:00:35.363Z,5.50
2019-02-19T22:03:03.928Z,5.85
2019-02-19T22:05:32.495Z,5.50
2019-02-19T22:08:01.091Z,4.80
2019-02-19T22:10:29.678Z,5.28
2019-02-19T22:12:58.486Z,5.47
2019-02-19T22:15:27.371Z,6.00
2019-02-19T22:17:56.915Z,5.05
2019-02-19T22:20:38.844Z,5.60
2019-02-19T22:23:08.125Z,6.03
2019-02-19T22:25:37.067Z,5.70
2019-02-19T22:28:06.020Z,5.67
2019-02-19T22:30:34.981Z,5.97
2019-02-19T22:33:04.975Z,6.62
2019-02-19T22:35:33.767Z,7.22
2019-02-19T22:38:02.601Z,5.85
2019-02-19T22:40:31.405Z,5.95
2019-02-19T22:43:00.171Z,5.92
2019-02-19T22:45:28.999Z,5.37
2019-02-19T22:47:57.787Z,5.55
2019-02-19T22:50:26.553Z,6.05
2019-02-19T22:52:56.111Z,6.33
2019-02-19T22:55:32.803Z,5.60
2019-02-19T22:58:01.596Z,6.40
2019-02-19T23:00:52.106Z,7.08
2019-02-19T23:03:24.767Z,6.55
2019-02-19T23:05:53.623Z,7.28
2019-02-19T23:08:23.356Z,7.42
2019-02-19T23:10:52.137Z,6.78
2019-02-19T23:13:20.948Z,6.40
2019-02-19T23:15:49.780Z,7.53
2019-02-19T23:18:18.813Z,7.12
2019-02-19T23:20:47.625Z,6.67
2019-02-19T23:23:16.411Z,7.00
2019-02-19T23:25:45.251Z,6.90
2019-02-19T23:28:14.045Z,7.17
2019-02-19T23:30:42.801Z,7.03
2019-02-19T23:33:11.647Z,6.45
2019-02-19T23:35:45.083Z,7.40
2019-02-19T23:38:13.867Z,6.90
2019-02-19T23:40:42.659Z,6.75
2019-02-19T23:43:11.418Z,6.90
2019-02-19T23:45:40.289Z,6.95
2019-02-19T23:48:09.252Z,7.95
2019-02-19T23:50:38.010Z,8.08
2019-02-19T23:53:06.806Z,7.67
2019-02-19T23:55:35.641Z,7.90
2019-02-19T23:58:04.498Z,8.53
